»·PEaware :: SWA1649 KPHX-KLAS

SWA1649 :: KPHX-KLAS

FLIGHT INFORMATION

Flight Status: Arrived
Operator:
Southwest Airlines
More flights by this operator :: More flights under this callsign
Pilot: Walter P. (10403)
Aircraft: BOEING 737-300
(B733)
More flights by this aircraft type
Origin: KPHX Phoenix Sky Harbor Intl
United States
Destination: KLAS McCarran Intl
United States
More flights between these airports :: More routes between these airports
Route: +MAYSA5 SISIE IGM TYSSN5
File this flight plan on PilotEdge
Remarks:
Altitude:
(Current/Filed)
28,000ft
Speed:
(Current/Filed)
400kts
Departed: 08-Apr-18 02:42 PM
Arrived: 08-Apr-18 03:31 PM
Distance/Time
Traveled:
222nm/0:49
Distance/Time
To Go:
Arrived

Flight Plot

Page will automatically refresh every two minutes.

Flight plan parsing failed; only flown route is shown


Map Options




Map Legend


Flown Route
Filed Route
Departure Airport
Arrival Airport
Navaid (VOR, NDB)
Fix

Horizontal Profiles

Position Reports

Time Latitude Longitude Heading Altitude Ground
Speed
08-Apr-18 13:53 33.434068 -111.996235 285 1116ft 0kts
08-Apr-18 13:54 33.434068 -111.996235 285 1116ft 0kts
08-Apr-18 13:55 33.434068 -111.996235 285 1116ft 0kts
08-Apr-18 13:56 33.434068 -111.996235 285 1116ft 0kts
08-Apr-18 13:57 33.434068 -111.996235 285 1116ft 0kts
08-Apr-18 13:58 33.434068 -111.996235 285 1116ft 0kts
08-Apr-18 13:59 33.434068 -111.996235 285 1116ft 0kts
08-Apr-18 14:00 33.434068 -111.996235 285 1116ft 0kts
08-Apr-18 14:09 33.434068 -111.996235 285 1116ft 0kts
08-Apr-18 14:10 33.434068 -111.996235 285 1116ft 0kts
08-Apr-18 14:11 33.434068 -111.996235 285 1116ft 0kts
08-Apr-18 14:12 33.434068 -111.996235 285 1116ft 0kts
08-Apr-18 14:13 33.434068 -111.996235 285 1116ft 0kts
08-Apr-18 14:14 33.434068 -111.996235 285 1116ft 0kts
08-Apr-18 14:15 33.434068 -111.996235 285 1116ft 0kts
08-Apr-18 14:16 33.434068 -111.996235 285 1116ft 0kts
08-Apr-18 14:17 33.434068 -111.996235 285 1116ft 0kts
08-Apr-18 14:18 33.434068 -111.996235 285 1116ft 0kts
08-Apr-18 14:19 33.434068 -111.996235 285 1116ft 0kts
08-Apr-18 14:20 33.434068 -111.996235 285 1116ft 0kts
08-Apr-18 14:21 33.434068 -111.996235 285 1116ft 0kts
08-Apr-18 14:22 33.434068 -111.996235 285 1116ft 0kts
08-Apr-18 14:23 33.434068 -111.996235 285 1116ft 0kts
08-Apr-18 14:24 33.434068 -111.996235 285 1116ft 0kts
08-Apr-18 14:25 33.434068 -111.996235 285 1116ft 0kts
08-Apr-18 14:26 33.434068 -111.996235 285 1116ft 0kts
08-Apr-18 14:27 33.434068 -111.996235 285 1116ft 0kts
08-Apr-18 14:28 33.434068 -111.996235 285 1116ft 0kts
08-Apr-18 14:29 33.434117 -111.995860 226 1116ft 2kts
08-Apr-18 14:30 33.434390 -111.995740 180 1116ft 0kts
08-Apr-18 14:31 33.434390 -111.995740 180 1116ft 0kts
08-Apr-18 14:32 33.434390 -111.995740 180 1116ft 0kts
08-Apr-18 14:33 33.434381 -111.995740 180 1116ft 0kts
08-Apr-18 14:34 33.432834 -111.995035 88 1116ft 12kts
08-Apr-18 14:35 33.431982 -111.992769 226 1116ft 0kts
08-Apr-18 14:36 33.431960 -111.992796 226 1116ft 0kts
08-Apr-18 14:37 33.431948 -111.992812 226 1116ft 1kts
08-Apr-18 14:38 33.431055 -111.994080 263 1116ft 0kts
08-Apr-18 14:39 33.431055 -111.994080 263 1116ft 0kts
08-Apr-18 14:40 33.431053 -111.994115 266 1116ft 1kts
08-Apr-18 14:41 33.431058 -112.000290 268 1116ft 91kts
08-Apr-18 14:42 33.431357 -112.048936 271 2288ft 168kts
08-Apr-18 14:43 33.456790 -112.096542 317 4061ft 212kts
08-Apr-18 14:44 33.507855 -112.150396 317 6094ft 260kts
08-Apr-18 14:45 33.571818 -112.186754 342 8915ft 275kts
08-Apr-18 14:46 33.649257 -112.211753 342 10739ft 324kts
08-Apr-18 14:47 33.737461 -112.240194 341 13539ft 338kts
08-Apr-18 14:48 33.828486 -112.269622 341 16420ft 346kts
08-Apr-18 14:49 33.922664 -112.300143 340 18921ft 358kts
08-Apr-18 14:50 34.019364 -112.332303 333 21192ft 367kts
08-Apr-18 14:51 34.098939 -112.405964 316 23250ft 369kts
08-Apr-18 14:52 34.176963 -112.484293 316 25169ft 378kts
08-Apr-18 14:53 34.256776 -112.564700 315 26944ft 386kts
08-Apr-18 14:54 34.339366 -112.648110 315 28217ft 385kts
08-Apr-18 14:55 34.419224 -112.729198 314 28180ft 378kts
08-Apr-18 14:56 34.500020 -112.811268 314 28189ft 381kts
08-Apr-18 14:57 34.580538 -112.894232 312 28184ft 379kts
08-Apr-18 14:58 34.658490 -112.979797 312 28169ft 380kts
08-Apr-18 14:59 34.736936 -113.065502 312 28047ft 379kts
08-Apr-18 15:00 34.815249 -113.151281 313 28056ft 380kts
08-Apr-18 15:01 34.893888 -113.237575 313 28056ft 381kts
08-Apr-18 15:02 34.972367 -113.323967 313 28049ft 383kts
08-Apr-18 15:03 35.028225 -113.431001 297 28048ft 375kts
08-Apr-18 15:04 35.079387 -113.541425 297 27260ft 379kts
08-Apr-18 15:05 35.130723 -113.651627 298 24269ft 369kts
08-Apr-18 15:06 35.175595 -113.748745 298 24038ft 370kts
08-Apr-18 15:07 35.210851 -113.825064 298 23361ft 343kts
08-Apr-18 15:08 35.258640 -113.927149 305 20443ft 343kts
08-Apr-18 15:09 35.330013 -113.998595 319 18757ft 327kts
08-Apr-18 15:10 35.399610 -114.063333 319 18085ft 315kts
08-Apr-18 15:11 35.465423 -114.124645 320 16359ft 292kts
08-Apr-18 15:12 35.529704 -114.184505 320 14082ft 289kts
08-Apr-18 15:13 35.592558 -114.243086 321 12859ft 286kts
08-Apr-18 15:14 35.654121 -114.300561 321 12026ft 269kts
08-Apr-18 15:15 35.713712 -114.356317 321 12002ft 271kts
08-Apr-18 15:16 35.779499 -114.400808 336 11846ft 274kts
08-Apr-18 15:17 35.850361 -114.434036 336 11047ft 271kts
08-Apr-18 15:18 35.920375 -114.466683 337 10253ft 269kts
08-Apr-18 15:19 35.984696 -114.496749 336 10020ft 224kts
08-Apr-18 15:20 36.037739 -114.532160 297 10008ft 220kts
08-Apr-18 15:21 36.051958 -114.605741 285 8474ft 218kts
08-Apr-18 15:22 36.064507 -114.677786 285 8001ft 217kts
08-Apr-18 15:23 36.071813 -114.751467 268 8004ft 224kts
08-Apr-18 15:24 36.072787 -114.825274 274 8018ft 206kts
08-Apr-18 15:25 36.072344 -114.893543 269 6931ft 205kts
08-Apr-18 15:26 36.072581 -114.965015 276 4970ft 210kts
08-Apr-18 15:27 36.073047 -115.027594 273 3547ft 170kts
08-Apr-18 15:28 36.073461 -115.080164 277 2724ft 146kts
08-Apr-18 15:29 36.073604 -115.127976 276 2086ft 139kts
08-Apr-18 15:30 36.074936 -115.150849 308 2118ft 3kts
08-Apr-18 15:31 36.075310 -115.151312 327 2120ft 0kts
08-Apr-18 15:32 36.076660 -115.152118 334 2122ft 15kts
08-Apr-18 15:33 36.078054 -115.148392 48 2105ft 22kts
08-Apr-18 15:34 36.080823 -115.144927 333 2087ft 12kts
08-Apr-18 15:35 36.080938 -115.145958 273 2091ft 0kts
08-Apr-18 15:36 36.080938 -115.145957 273 2091ft 0kts
08-Apr-18 15:37 36.080938 -115.145957 273 2091ft 0kts
08-Apr-18 15:38 36.080938 -115.145957 273 2091ft 0kts
08-Apr-18 15:39 36.080938 -115.145957 273 2091ft 0kts
08-Apr-18 15:40 36.080938 -115.145957 273 2091ft 0kts
08-Apr-18 15:41 36.080938 -115.145957 273 2091ft 0kts
08-Apr-18 15:42 36.080938 -115.145957 273 2091ft 0kts
08-Apr-18 15:43 36.080938 -115.145957 273 2091ft 0kts
08-Apr-18 15:44 36.080938 -115.145957 273 2091ft 0kts
08-Apr-18 15:45 36.080938 -115.145957 273 2091ft 0kts

Navigation Log

Ident Type
Flight plan parsing failed, navigation log unavailable